Time;durP1;ratioP1;P1;durP2;ratioP2;P2;SDS_P1;SDS_P2;PMS_P1;PMS_P2;Temp;Humidity;BMP_temperature;BMP_pressure;BME280_temperature;BME280_humidity;BME280_pressure;Samples;Min_cycle;Max_cycle;Signal;HPM_P1;HPM_P2
2023/04/06 00:00:32;;;;;;;22.43;9.80;;;2.60;99.90;;;;;;5092373;28;20047;-52
2023/04/06 00:02:58;;;;;;;19.30;10.83;;;2.50;99.90;;;;;;5092230;28;20032;-52
2023/04/06 00:05:24;;;;;;;20.63;10.03;;;2.40;99.90;;;;;;5092040;28;20103;-52
2023/04/06 00:07:50;;;;;;;20.37;10.40;;;2.40;99.90;;;;;;5090762;28;20032;-51
2023/04/06 00:10:16;;;;;;;20.77;10.70;;;2.40;99.90;;;;;;5092102;28;20058;-51
2023/04/06 00:12:43;;;;;;;21.70;10.30;;;2.40;99.90;;;;;;5092098;28;20063;-53
2023/04/06 00:15:09;;;;;;;21.77;10.37;;;2.30;99.90;;;;;;5092360;28;20143;-50
2023/04/06 00:17:35;;;;;;;17.77;9.40;;;2.30;99.90;;;;;;5091807;28;20468;-47
2023/04/06 00:20:01;;;;;;;19.63;9.80;;;2.30;99.90;;;;;;5091855;28;20031;-49
2023/04/06 00:22:26;;;;;;;17.83;9.10;;;2.30;99.90;;;;;;5092064;28;20027;-49
2023/04/06 00:24:52;;;;;;;22.17;9.37;;;2.20;99.90;;;;;;5091942;28;20538;-47
2023/04/06 00:27:18;;;;;;;17.20;7.60;;;2.20;99.90;;;;;;5091619;28;20032;-48
2023/04/06 00:29:45;;;;;;;16.17;8.37;;;2.10;99.90;;;;;;5091780;28;20123;-50
2023/04/06 00:32:10;;;;;;;19.73;9.00;;;2.00;99.90;;;;;;5091720;28;20032;-48
2023/04/06 00:34:36;;;;;;;21.73;8.37;;;2.00;99.90;;;;;;5090211;28;20028;-50
2023/04/06 00:37:02;;;;;;;24.00;9.10;;;2.00;99.90;;;;;;5091644;28;20027;-48
2023/04/06 00:39:27;;;;;;;17.60;8.70;;;1.90;99.90;;;;;;5091479;28;20073;-47
2023/04/06 00:41:54;;;;;;;19.33;8.97;;;2.00;99.90;;;;;;5090437;28;20511;-47
2023/04/06 00:44:22;;;;;;;23.37;9.77;;;2.00;99.90;;;;;;5089983;28;20077;-48
2023/04/06 00:46:47;;;;;;;18.23;9.63;;;2.00;99.90;;;;;;5091210;28;20028;-49
2023/04/06 00:49:13;;;;;;;18.03;8.37;;;2.00;99.90;;;;;;5089972;28;20031;-51
2023/04/06 00:51:39;;;;;;;16.33;8.43;;;1.90;99.90;;;;;;5091493;28;20454;-49
2023/04/06 00:54:05;;;;;;;15.97;7.87;;;1.80;99.90;;;;;;5089822;28;20036;-48
2023/04/06 00:56:33;;;;;;;15.80;8.07;;;1.90;99.90;;;;;;5089876;28;20024;-50
2023/04/06 00:58:59;;;;;;;18.97;8.20;;;1.70;99.90;;;;;;5089760;28;20127;-49
2023/04/06 01:01:25;;;;;;;17.03;7.73;;;1.60;99.90;;;;;;5089830;28;20031;-48
2023/04/06 01:03:54;;;;;;;15.90;7.80;;;1.50;99.90;;;;;;5089621;28;20062;-49
2023/04/06 01:06:20;;;;;;;16.07;7.80;;;1.40;99.90;;;;;;5090852;28;20024;-50
2023/04/06 01:08:55;;;;;;;14.80;7.17;;;1.30;99.90;;;;;;5089761;28;20024;-47
2023/04/06 01:11:23;;;;;;;15.32;7.50;;;1.30;99.90;;;;;;5089656;28;20073;-48
2023/04/06 01:14:03;;;;;;;16.23;7.80;;;1.30;99.90;;;;;;5068149;28;20075;-51
2023/04/06 01:17:00;;;;;;;13.67;7.03;;;1.20;99.90;;;;;;5067422;28;20040;-49
2023/04/06 01:19:29;;;;;;;16.30;7.07;;;1.20;99.90;;;;;;5069266;28;20500;-50
2023/04/06 01:21:55;;;;;;;19.63;7.87;;;1.20;99.90;;;;;;5069998;28;20092;-52
2023/04/06 01:24:39;;;;;;;14.70;7.30;;;1.30;99.90;;;;;;5069116;28;20033;-49
2023/04/06 01:27:12;;;;;;;15.37;6.97;;;1.20;99.90;;;;;;5069057;28;20043;-50
2023/04/06 01:29:51;;;;;;;16.40;7.22;;;1.30;99.90;;;;;;5069282;28;20063;-49
2023/04/06 01:32:30;;;;;;;17.03;7.17;;;1.30;99.90;;;;;;5086067;28;20124;-52
2023/04/06 01:34:57;;;;;;;15.70;7.77;;;1.40;99.90;;;;;;5070332;28;20029;-49
2023/04/06 01:37:23;;;;;;;16.17;7.83;;;1.30;99.90;;;;;;5069034;28;20033;-50
2023/04/06 01:39:52;;;;;;;15.32;8.02;;;1.30;99.90;;;;;;5085949;28;20382;-49
2023/04/06 01:42:26;;;;;;;17.77;7.67;;;1.40;99.90;;;;;;5069086;28;20029;-52
2023/04/06 01:44:52;;;;;;;15.57;7.60;;;1.40;99.90;;;;;;5070254;28;20025;-50
2023/04/06 01:47:18;;;;;;;17.10;8.07;;;1.40;99.90;;;;;;5070075;28;20028;-51
2023/04/06 01:49:44;;;;;;;16.40;8.10;;;1.40;99.90;;;;;;5085885;28;20036;-52
2023/04/06 01:52:10;;;;;;;15.40;7.63;;;1.40;99.90;;;;;;5069007;28;20515;-49
2023/04/06 01:54:40;;;;;;;16.93;7.93;;;1.40;99.90;;;;;;5069059;28;20060;-53
2023/04/06 01:57:11;;;;;;;15.83;7.70;;;1.40;99.90;;;;;;5085624;28;20427;-52
2023/04/06 01:59:50;;;;;;;14.65;7.07;;;1.40;99.90;;;;;;5085606;28;20515;-50
2023/04/06 02:02:35;;;;;;;17.30;7.87;;;1.50;99.90;;;;;;5070130;28;20037;-49
2023/04/06 02:05:06;;;;;;;15.37;8.10;;;1.50;99.90;;;;;;5068733;28;20036;-49
2023/04/06 02:07:32;;;;;;;13.80;7.47;;;1.50;99.90;;;;;;5068692;28;20500;-51
2023/04/06 02:09:59;;;;;;;15.70;7.67;;;1.50;99.90;;;;;;5085616;28;20043;-53
2023/04/06 02:12:33;;;;;;;16.53;7.43;;;1.50;99.90;;;;;;5085521;28;20389;-52
2023/04/06 02:15:00;;;;;;;14.77;8.10;;;1.60;99.90;;;;;;5085481;28;20105;-51
2023/04/06 02:17:25;;;;;;;16.60;8.47;;;1.60;99.90;;;;;;5085415;28;20492;-51
2023/04/06 02:19:51;;;;;;;15.60;8.27;;;1.70;99.90;;;;;;5085567;28;20064;-52
2023/04/06 02:22:17;;;;;;;17.33;8.47;;;1.70;99.90;;;;;;5070059;28;20078;-53
2023/04/06 02:24:44;;;;;;;20.30;8.40;;;1.80;99.90;;;;;;5069788;28;20451;-54
2023/04/06 02:27:10;;;;;;;18.57;7.97;;;1.80;99.90;;;;;;5069727;28;20028;-59
2023/04/06 02:29:35;;;;;;;15.40;7.67;;;1.90;99.90;;;;;;5085269;28;20070;-50
2023/04/06 02:32:03;;;;;;;18.87;8.60;;;1.80;99.90;;;;;;5069617;28;20473;-51
2023/04/06 02:34:31;;;;;;;20.17;8.47;;;1.90;99.90;;;;;;5073551;28;20040;-52
2023/04/06 02:36:57;;;;;;;17.57;8.30;;;1.90;99.90;;;;;;5088956;28;20477;-51
2023/04/06 02:39:23;;;;;;;17.33;8.77;;;1.90;99.90;;;;;;5071955;28;20082;-50
2023/04/06 02:41:49;;;;;;;19.77;9.10;;;2.00;99.90;;;;;;5072268;28;20029;-52
2023/04/06 02:44:19;;;;;;;19.60;9.07;;;2.00;99.90;;;;;;5088731;28;20020;-51
2023/04/06 02:46:46;;;;;;;20.53;8.67;;;2.00;99.90;;;;;;5088952;28;20115;-51
2023/04/06 02:49:12;;;;;;;20.10;8.80;;;2.00;99.90;;;;;;5073337;28;20107;-49
2023/04/06 02:51:38;;;;;;;19.13;8.60;;;2.10;99.90;;;;;;5073310;28;20029;-49
2023/04/06 02:54:23;;;;;;;19.53;9.17;;;2.10;99.90;;;;;;5088672;28;20036;-53
2023/04/06 02:56:49;;;;;;;15.57;9.00;;;2.10;99.90;;;;;;5088619;28;20035;-52
2023/04/06 02:59:15;;;;;;;16.63;8.70;;;2.10;99.90;;;;;;5072957;28;20036;-53
2023/04/06 03:01:47;;;;;;;15.40;8.87;;;2.20;99.90;;;;;;5071745;28;20512;-52
2023/04/06 03:04:13;;;;;;;18.13;9.93;;;2.20;99.90;;;;;;5088499;28;20029;-53
2023/04/06 03:06:39;;;;;;;18.40;9.10;;;2.20;99.90;;;;;;5072873;28;20476;-52
2023/04/06 03:09:15;;;;;;;17.27;9.10;;;2.20;99.90;;;;;;5071668;28;20051;-51
2023/04/06 03:11:42;;;;;;;17.10;8.73;;;2.20;99.90;;;;;;5071576;28;20052;-53
2023/04/06 03:14:08;;;;;;;15.70;8.67;;;2.20;99.90;;;;;;5071361;28;20484;-50
2023/04/06 03:16:34;;;;;;;17.10;8.63;;;2.20;99.90;;;;;;5088287;28;20257;-53
2023/04/06 03:19:01;;;;;;;17.53;8.77;;;2.20;99.90;;;;;;5071278;28;20085;-49
2023/04/06 03:21:28;;;;;;;17.00;9.40;;;2.20;99.90;;;;;;5071395;28;20535;-52
2023/04/06 03:23:54;;;;;;;15.80;8.90;;;2.20;99.90;;;;;;5072689;28;20438;-53
2023/04/06 03:26:22;;;;;;;15.43;8.53;;;2.20;99.90;;;;;;5088044;28;20123;-51
2023/04/06 03:28:48;;;;;;;18.23;8.30;;;2.20;99.90;;;;;;5071298;28;20078;-52
2023/04/06 03:31:15;;;;;;;14.27;8.07;;;2.30;99.90;;;;;;5088120;28;20187;-54
2023/04/06 03:33:54;;;;;;;18.33;8.45;;;2.30;99.90;;;;;;5087980;28;20396;-53
2023/04/06 03:36:26;;;;;;;18.13;8.83;;;2.30;99.90;;;;;;5088006;28;20082;-52
2023/04/06 03:38:53;;;;;;;16.17;8.90;;;2.30;99.90;;;;;;5071090;28;20034;-53
2023/04/06 03:41:19;;;;;;;15.60;8.63;;;2.30;99.90;;;;;;5072352;28;20017;-52
2023/04/06 03:43:58;;;;;;;16.98;8.75;;;2.30;99.90;;;;;;5071533;28;20032;-53
2023/04/06 03:46:24;;;;;;;17.90;9.00;;;2.30;99.90;;;;;;5072068;28;20027;-49
2023/04/06 03:48:52;;;;;;;20.03;8.77;;;2.30;99.90;;;;;;5070906;28;20029;-52
2023/04/06 03:51:20;;;;;;;17.07;8.47;;;2.30;99.90;;;;;;5087964;28;20431;-51
2023/04/06 03:53:47;;;;;;;15.03;8.30;;;2.30;99.90;;;;;;5087441;28;20036;-50
2023/04/06 03:56:13;;;;;;;18.50;9.10;;;2.30;99.90;;;;;;5072037;28;20073;-53
2023/04/06 03:58:38;;;;;;;17.07;8.73;;;2.30;99.90;;;;;;5071606;28;20401;-51
2023/04/06 04:01:04;;;;;;;17.63;8.90;;;2.30;99.90;;;;;;5071954;28;20024;-51
2023/04/06 04:03:30;;;;;;;16.77;8.97;;;2.30;99.90;;;;;;5070345;28;20492;-53
2023/04/06 04:05:56;;;;;;;19.40;9.00;;;2.30;99.90;;;;;;5072038;28;20093;-54
2023/04/06 04:08:25;;;;;;;17.20;8.47;;;2.30;99.90;;;;;;5070420;28;20644;-54
2023/04/06 04:10:52;;;;;;;18.08;8.60;;;2.30;99.90;;;;;;5087399;28;20025;-53
2023/04/06 04:13:18;;;;;;;19.40;8.37;;;2.20;99.90;;;;;;5071731;28;20044;-49
2023/04/06 04:15:47;;;;;;;17.63;8.68;;;2.20;99.90;;;;;;5087264;28;20032;-49
2023/04/06 04:18:14;;;;;;;17.93;8.33;;;2.20;99.90;;;;;;5070140;28;20113;-49
2023/04/06 04:20:40;;;;;;;15.63;8.20;;;2.20;99.90;;;;;;5071767;28;20060;-51
2023/04/06 04:23:07;;;;;;;14.50;8.57;;;2.20;99.90;;;;;;5070130;28;20029;-50
2023/04/06 04:25:34;;;;;;;15.57;8.30;;;2.20;99.90;;;;;;5086808;28;20043;-52
2023/04/06 04:28:00;;;;;;;15.10;8.30;;;2.20;99.90;;;;;;5071251;28;20553;-49
2023/04/06 04:30:25;;;;;;;15.70;8.47;;;2.30;99.90;;;;;;5071298;28;20047;-50
2023/04/06 04:32:51;;;;;;;15.90;8.07;;;2.20;99.90;;;;;;5071310;28;20056;-51
2023/04/06 04:35:20;;;;;;;15.98;8.05;;;2.30;99.90;;;;;;5069891;28;20028;-53
2023/04/06 04:37:46;;;;;;;18.80;8.63;;;2.30;99.90;;;;;;5071102;28;20674;-51
2023/04/06 04:40:12;;;;;;;18.87;8.30;;;2.30;99.90;;;;;;5071103;28;20124;-53
2023/04/06 04:42:46;;;;;;;18.77;8.20;;;2.30;99.90;;;;;;5071095;28;20033;-53
2023/04/06 04:45:19;;;;;;;20.23;8.40;;;2.30;99.90;;;;;;5069732;28;20032;-52
2023/04/06 04:47:45;;;;;;;13.90;7.80;;;2.30;99.90;;;;;;5086580;28;20024;-51
2023/04/06 04:50:13;;;;;;;13.53;7.77;;;2.30;99.90;;;;;;5086577;28;20081;-49
2023/04/06 04:52:43;;;;;;;;;;;2.40;99.90;;;;;;5070130;28;20052;-52
2023/04/06 04:55:16;;;;;;;14.93;7.53;;;2.30;99.90;;;;;;5068956;28;20429;-51
2023/04/06 04:57:44;;;;;;;11.02;5.95;;;2.50;99.90;;;;;;5069350;28;20560;-53
2023/04/06 05:00:11;;;;;;;15.03;7.13;;;2.50;99.90;;;;;;5086355;28;20037;-51
2023/04/06 05:02:40;;;;;;;;;;;2.60;99.90;;;;;;5070000;28;20070;-49
2023/04/06 05:05:20;;;;;;;15.57;7.43;;;2.60;99.90;;;;;;5069342;28;19967;-50
2023/04/06 05:07:45;;;;;;;15.73;7.17;;;2.60;99.90;;;;;;5086178;28;20037;-50
2023/04/06 05:10:20;;;;;;;16.07;7.17;;;2.60;99.90;;;;;;5086207;28;20028;-53
2023/04/06 05:12:52;;;;;;;16.53;8.00;;;2.60;99.90;;;;;;5086057;28;20035;-54
2023/04/06 05:15:18;;;;;;;16.57;7.00;;;2.60;99.90;;;;;;5069221;28;20389;-52
2023/04/06 05:17:44;;;;;;;19.50;9.27;;;2.70;99.90;;;;;;5069003;28;20020;-54
2023/04/06 05:20:14;;;;;;;15.13;7.73;;;2.70;99.90;;;;;;5069313;28;20090;-52
2023/04/06 05:22:46;;;;;;;15.50;7.07;;;2.70;99.90;;;;;;5086024;28;20036;-51
2023/04/06 05:25:13;;;;;;;15.67;7.23;;;2.80;99.90;;;;;;5085956;28;20024;-55
2023/04/06 05:27:40;;;;;;;16.20;7.70;;;2.90;99.90;;;;;;5085881;28;20366;-52
2023/04/06 05:30:15;;;;;;;17.40;8.03;;;2.90;99.90;;;;;;5085888;28;20024;-54
2023/04/06 05:32:44;;;;;;;15.80;7.53;;;3.00;99.90;;;;;;5085977;28;20078;-53
2023/04/06 05:35:11;;;;;;;17.23;8.27;;;3.00;99.90;;;;;;5085903;28;20112;-52
2023/04/06 05:37:39;;;;;;;13.93;6.70;;;3.00;99.90;;;;;;5068801;28;20024;-51
2023/04/06 05:40:06;;;;;;;12.97;7.37;;;3.10;99.90;;;;;;5069104;28;20546;-50
2023/04/06 05:42:42;;;;;;;20.47;9.00;;;3.10;99.90;;;;;;5068983;28;20562;-52
2023/04/06 05:45:10;;;;;;;17.37;7.67;;;3.20;99.90;;;;;;5085631;28;20028;-53
2023/04/06 05:47:37;;;;;;;13.07;6.68;;;3.20;99.90;;;;;;5085639;28;20025;-51
2023/04/06 05:50:15;;;;;;;15.17;7.63;;;3.30;99.90;;;;;;5068966;28;20424;-49
2023/04/06 05:52:43;;;;;;;15.90;7.80;;;3.30;99.90;;;;;;5085706;28;20024;-53
2023/04/06 05:55:11;;;;;;;20.65;8.35;;;3.40;99.90;;;;;;5068714;28;20024;-50
2023/04/06 05:57:39;;;;;;;14.07;7.70;;;3.40;99.90;;;;;;5085549;28;20089;-52
2023/04/06 06:00:08;;;;;;;18.07;7.97;;;3.50;99.90;;;;;;5068896;28;20036;-54
2023/04/06 06:02:47;;;;;;;18.27;7.53;;;3.60;99.90;;;;;;5069226;28;20029;-54
2023/04/06 06:05:17;;;;;;;15.20;8.00;;;3.60;99.90;;;;;;5085684;28;20031;-49
2023/04/06 06:07:45;;;;;;;20.73;8.30;;;3.60;99.90;;;;;;5070970;28;20081;-50
2023/04/06 06:10:11;;;;;;;14.07;7.50;;;3.70;99.90;;;;;;5072773;28;20127;-53
2023/04/06 06:12:37;;;;;;;17.03;7.37;;;3.80;99.90;;;;;;5072539;28;20036;-52
2023/04/06 06:15:03;;;;;;;17.10;7.47;;;3.90;99.90;;;;;;5089517;28;20029;-50
2023/04/06 06:17:32;;;;;;;13.63;7.47;;;4.10;99.90;;;;;;5089420;28;20036;-53
2023/04/06 06:19:58;;;;;;;15.40;7.53;;;4.30;99.90;;;;;;5089502;28;20524;-51
2023/04/06 06:22:26;;;;;;;12.27;6.73;;;4.70;99.90;;;;;;5072334;28;20024;-51
2023/04/06 06:24:52;;;;;;;10.37;6.23;;;5.10;99.90;;;;;;5073473;28;20116;-50
2023/04/06 06:27:19;;;;;;;13.13;7.00;;;5.30;99.80;;;;;;5088988;28;20031;-54
2023/04/06 06:29:46;;;;;;;13.37;6.90;;;5.70;99.30;;;;;;5089172;28;20123;-54
2023/04/06 06:32:12;;;;;;;12.60;5.97;;;5.90;98.60;;;;;;5072190;28;20025;-53
2023/04/06 06:34:39;;;;;;;16.53;6.97;;;6.10;98.00;;;;;;5088930;28;20120;-52
2023/04/06 06:37:08;;;;;;;12.60;6.68;;;6.00;98.20;;;;;;5088836;28;20032;-50
2023/04/06 06:39:36;;;;;;;10.37;5.77;;;6.20;98.40;;;;;;5088960;28;20090;-53
2023/04/06 06:42:02;;;;;;;13.13;6.60;;;6.40;97.60;;;;;;5072072;28;20026;-51
2023/04/06 06:44:45;;;;;;;13.53;6.20;;;6.60;97.00;;;;;;5088939;28;20033;-52
2023/04/06 06:47:11;;;;;;;13.97;7.17;;;7.10;96.50;;;;;;5073049;28;20077;-51
2023/04/06 06:49:36;;;;;;;12.27;6.80;;;7.40;96.20;;;;;;5073243;28;20029;-50
2023/04/06 06:52:02;;;;;;;12.43;6.47;;;7.50;95.00;;;;;;5073295;28;20035;-52
2023/04/06 06:54:28;;;;;;;16.83;9.13;;;7.70;94.90;;;;;;5088442;28;20037;-52
2023/04/06 06:56:54;;;;;;;11.47;6.43;;;7.80;94.50;;;;;;5072892;28;20032;-54
2023/04/06 06:59:20;;;;;;;14.67;7.83;;;8.10;93.80;;;;;;5088619;28;20036;-49
2023/04/06 07:01:46;;;;;;;14.73;6.80;;;8.40;93.60;;;;;;5088781;28;20451;-51
2023/04/06 07:04:12;;;;;;;11.97;6.47;;;8.40;93.40;;;;;;5071517;28;20032;-53
2023/04/06 07:06:38;;;;;;;10.27;6.47;;;8.60;92.60;;;;;;5088198;28;20021;-52
2023/04/06 07:09:03;;;;;;;12.80;6.53;;;8.80;91.60;;;;;;5071495;28;20029;-50
2023/04/06 07:11:30;;;;;;;14.23;6.33;;;8.90;91.20;;;;;;5088273;28;20207;-49
2023/04/06 07:13:56;;;;;;;11.67;5.93;;;8.90;90.90;;;;;;5100072;22;20055;-49
2023/04/06 07:16:21;;;;;;;12.17;6.53;;;8.90;90.60;;;;;;5092765;28;20036;-50
2023/04/06 07:18:47;;;;;;;11.63;6.00;;;8.90;90.90;;;;;;5091668;28;20024;-51
2023/04/06 07:21:13;;;;;;;11.40;6.50;;;9.20;91.00;;;;;;5091699;28;20027;-53
2023/04/06 07:23:39;;;;;;;14.40;6.47;;;9.40;90.00;;;;;;5092525;28;20480;-53
2023/04/06 07:26:06;;;;;;;12.17;6.53;;;9.50;89.50;;;;;;5091333;28;20058;-53
2023/04/06 07:28:31;;;;;;;11.10;6.43;;;9.60;89.10;;;;;;5091311;28;20043;-51
2023/04/06 07:30:59;;;;;;;11.10;6.63;;;9.90;87.30;;;;;;5091357;28;20032;-53
2023/04/06 07:33:29;;;;;;;10.53;6.43;;;10.10;86.70;;;;;;5090962;28;20032;-53
2023/04/06 07:35:56;;;;;;;14.10;6.93;;;10.30;84.20;;;;;;5091250;28;20425;-54
2023/04/06 07:38:22;;;;;;;12.47;7.37;;;10.40;84.30;;;;;;5090890;28;20032;-53
2023/04/06 07:40:50;;;;;;;10.83;6.80;;;10.50;82.90;;;;;;5091141;28;20024;-55
2023/04/06 07:43:16;;;;;;;12.13;7.40;;;10.20;83.40;;;;;;5091115;28;20089;-50
2023/04/06 07:45:42;;;;;;;12.60;6.97;;;9.90;84.20;;;;;;5090809;28;20028;-55
2023/04/06 07:48:08;;;;;;;11.27;6.80;;;10.00;85.90;;;;;;5090766;28;20504;-53
2023/04/06 07:50:34;;;;;;;11.70;6.20;;;10.40;82.10;;;;;;5090928;28;20055;-54
2023/04/06 07:53:00;;;;;;;12.37;6.83;;;10.90;80.80;;;;;;5090756;28;20496;-53
2023/04/06 07:55:27;;;;;;;13.17;6.93;;;11.10;79.20;;;;;;5090922;28;20057;-53
2023/04/06 07:57:52;;;;;;;11.60;7.00;;;11.40;78.60;;;;;;5092227;28;20028;-55
2023/04/06 08:00:18;;;;;;;13.20;7.07;;;11.70;78.10;;;;;;5091979;28;20103;-51
2023/04/06 08:02:44;;;;;;;11.43;7.13;;;12.10;76.60;;;;;;5092004;28;20032;-53
2023/04/06 08:05:10;;;;;;;11.50;7.70;;;12.10;74.20;;;;;;5091784;28;20133;-54
2023/04/06 08:07:36;;;;;;;14.45;7.78;;;12.40;73.30;;;;;;5091819;28;20039;-54
2023/04/06 08:10:02;;;;;;;11.30;7.05;;;12.50;73.00;;;;;;5092002;28;20059;-54
2023/04/06 08:12:28;;;;;;;13.05;7.18;;;12.60;72.70;;;;;;5092026;28;20059;-52
2023/04/06 08:14:53;;;;;;;15.80;8.05;;;12.70;71.60;;;;;;5091627;28;20024;-55
2023/04/06 08:17:19;;;;;;;13.05;7.30;;;12.60;70.90;;;;;;5091525;28;20024;-55
2023/04/06 08:19:45;;;;;;;12.18;7.20;;;12.60;71.00;;;;;;5091635;28;20060;-54
2023/04/06 08:22:11;;;;;;;16.55;8.23;;;12.60;69.70;;;;;;5091651;28;20023;-54
2023/04/06 08:24:37;;;;;;;13.68;7.15;;;12.20;70.20;;;;;;5091203;28;20024;-51
2023/04/06 08:27:03;;;;;;;18.98;8.32;;;12.20;70.60;;;;;;5091321;28;20036;-52
2023/04/06 08:29:28;;;;;;;13.75;8.75;;;12.00;73.80;;;;;;5091238;28;20028;-53
2023/04/06 08:31:54;;;;;;;13.50;8.15;;;12.10;73.30;;;;;;5091888;28;20024;-54
2023/04/06 08:34:21;;;;;;;16.57;10.10;;;12.10;72.00;;;;;;5091289;28;20036;-54
2023/04/06 08:36:47;;;;;;;14.27;9.37;;;11.90;71.10;;;;;;5091008;28;20035;-53
2023/04/06 08:39:13;;;;;;;15.23;8.90;;;12.10;71.60;;;;;;5091585;28;20032;-55
2023/04/06 08:41:42;;;;;;;12.97;7.50;;;12.20;72.90;;;;;;5091309;28;20027;-53
2023/04/06 08:44:08;;;;;;;13.32;8.30;;;12.20;71.50;;;;;;5090790;28;20028;-54
2023/04/06 08:46:34;;;;;;;14.67;7.93;;;12.40;72.10;;;;;;5091075;28;20024;-53
2023/04/06 08:49:01;;;;;;;16.92;7.80;;;12.60;69.00;;;;;;5091208;28;20032;-53
2023/04/06 08:51:28;;;;;;;15.65;8.30;;;12.60;70.70;;;;;;5091074;28;20460;-54
2023/04/06 08:53:55;;;;;;;13.65;7.82;;;12.60;71.10;;;;;;5090822;28;20067;-55
2023/04/06 08:56:22;;;;;;;14.77;8.50;;;12.70;69.20;;;;;;5090686;28;20116;-55
2023/04/06 08:58:49;;;;;;;14.77;8.25;;;13.00;68.80;;;;;;5090665;28;20036;-54
2023/04/06 09:01:20;;;;;;;13.55;8.35;;;13.10;68.00;;;;;;5091276;28;20056;-54
2023/04/06 09:03:48;;;;;;;13.45;7.90;;;13.50;66.80;;;;;;5090748;28;20156;-53
2023/04/06 09:06:14;;;;;;;14.25;8.13;;;13.50;66.40;;;;;;5090887;28;20385;-51
2023/04/06 09:08:41;;;;;;;15.23;8.85;;;13.60;65.00;;;;;;5090684;28;20392;-55
2023/04/06 09:11:08;;;;;;;16.98;8.73;;;13.50;64.70;;;;;;5090865;28;20214;-55
2023/04/06 09:13:48;;;;;;;17.45;8.90;;;13.40;65.40;;;;;;5090308;28;20044;-54
2023/04/06 09:16:15;;;;;;;15.65;9.68;;;13.40;66.20;;;;;;5090698;28;20039;-56
2023/04/06 09:18:41;;;;;;;19.67;7.93;;;13.40;66.00;;;;;;5090355;28;20059;-53
2023/04/06 09:21:08;;;;;;;16.25;8.98;;;13.30;64.50;;;;;;5090647;28;20035;-55
2023/04/06 09:23:34;;;;;;;15.38;8.50;;;13.10;65.70;;;;;;5090391;28;20039;-51
2023/04/06 09:26:09;;;;;;;15.15;8.65;;;13.20;65.30;;;;;;5090573;28;20383;-55
2023/04/06 09:29:03;;;;;;;13.95;8.30;;;13.40;66.10;;;;;;5090623;28;20031;-54
2023/04/06 09:31:32;;;;;;;17.23;9.13;;;13.50;64.80;;;;;;5089063;28;20051;-51
2023/04/06 09:34:00;;;;;;;14.85;8.40;;;13.50;66.80;;;;;;5090091;28;20036;-53
2023/04/06 09:36:35;;;;;;;13.85;8.45;;;13.50;63.80;;;;;;5090197;28;20549;-53
2023/04/06 09:39:03;;;;;;;15.80;8.63;;;13.60;65.30;;;;;;5090371;28;20421;-54
2023/04/06 09:41:30;;;;;;;17.73;9.25;;;13.60;63.80;;;;;;5089943;28;20070;-54
2023/04/06 09:44:02;;;;;;;16.95;9.63;;;13.70;63.30;;;;;;5090190;28;20028;-54
2023/04/06 09:46:32;;;;;;;18.60;9.95;;;13.50;64.50;;;;;;5090266;28;20031;-54
2023/04/06 09:48:58;;;;;;;14.73;8.93;;;13.60;63.40;;;;;;5090282;28;20036;-51
2023/04/06 09:51:26;;;;;;;17.63;9.48;;;13.60;64.90;;;;;;5090287;28;20051;-55
2023/04/06 09:54:00;;;;;;;16.92;9.30;;;13.60;63.10;;;;;;5088840;28;20642;-55
2023/04/06 09:56:28;;;;;;;16.25;9.38;;;13.60;63.00;;;;;;5090114;28;20020;-55
2023/04/06 09:59:01;;;;;;;17.92;9.50;;;13.60;62.20;;;;;;5090142;28;20058;-54
2023/04/06 10:01:29;;;;;;;19.08;9.65;;;13.80;61.40;;;;;;5090275;28;20383;-54
2023/04/06 10:04:08;;;;;;;17.38;10.02;;;13.90;62.70;;;;;;5089947;28;20071;-50
2023/04/06 10:06:35;;;;;;;19.45;9.98;;;14.10;61.40;;;;;;5090105;28;20046;-54
2023/04/06 10:09:04;;;;;;;17.77;9.85;;;14.20;61.60;;;;;;5090199;28;20036;-54
2023/04/06 10:11:30;;;;;;;21.17;10.00;;;14.50;60.10;;;;;;5090183;28;20028;-53
2023/04/06 10:13:56;;;;;;;18.67;9.52;;;14.70;60.40;;;;;;5089781;28;20034;-54
2023/04/06 10:16:24;;;;;;;19.75;10.45;;;14.90;60.20;;;;;;5090004;28;20078;-54
2023/04/06 10:18:56;;;;;;;17.88;10.18;;;15.00;61.70;;;;;;5089871;28;20028;-55
2023/04/06 10:21:26;;;;;;;19.92;10.65;;;15.20;60.10;;;;;;5088953;28;20420;-54
2023/04/06 10:24:00;;;;;;;18.85;10.43;;;15.40;59.60;;;;;;5089894;28;20085;-52
2023/04/06 10:26:26;;;;;;;20.48;11.00;;;15.60;58.80;;;;;;5088654;28;20056;-53
2023/04/06 10:28:52;;;;;;;19.83;10.75;;;15.90;60.10;;;;;;5090063;28;20052;-56
2023/04/06 10:31:26;;;;;;;19.77;11.25;;;16.00;59.60;;;;;;5090053;28;20465;-56
2023/04/06 10:34:02;;;;;;;18.95;10.88;;;16.50;59.30;;;;;;5090086;28;20149;-55
2023/04/06 10:36:32;;;;;;;22.65;10.82;;;16.90;57.50;;;;;;5089693;28;20038;-55
2023/04/06 10:39:00;;;;;;;20.38;12.32;;;16.90;56.60;;;;;;5090049;28;20334;-55
2023/04/06 10:41:40;;;;;;;23.15;11.30;;;17.10;56.60;;;;;;5090064;28;20063;-53
2023/04/06 10:44:06;;;;;;;22.25;12.40;;;17.00;57.90;;;;;;5089619;28;20043;-53
2023/04/06 10:46:33;;;;;;;22.15;11.25;;;16.70;57.10;;;;;;5089631;28;20024;-56
2023/04/06 10:49:11;;;;;;;20.05;11.43;;;16.70;57.90;;;;;;5089575;28;20369;-53
2023/04/06 10:51:38;;;;;;;22.35;12.15;;;16.90;57.80;;;;;;5089824;28;20039;-55
2023/04/06 10:54:06;;;;;;;21.23;10.93;;;16.50;59.70;;;;;;5090549;28;20039;-56
2023/04/06 10:56:36;;;;;;;18.63;10.75;;;16.20;58.00;;;;;;5093126;28;20404;-54
2023/04/06 10:59:02;;;;;;;18.48;10.77;;;15.60;57.30;;;;;;5093116;28;20028;-51
2023/04/06 11:01:28;;;;;;;21.15;10.75;;;15.40;58.80;;;;;;5093391;28;20067;-53
2023/04/06 11:03:56;;;;;;;21.75;10.73;;;15.20;61.10;;;;;;5093325;28;20056;-53
2023/04/06 11:06:23;;;;;;;21.38;11.50;;;15.20;62.10;;;;;;5093042;28;20065;-53
2023/04/06 11:08:50;;;;;;;19.95;11.02;;;15.30;62.40;;;;;;5093128;28;20032;-53
2023/04/06 11:11:19;;;;;;;20.58;10.77;;;15.20;61.00;;;;;;5093406;28;20028;-52
2023/04/06 11:13:53;;;;;;;21.80;11.43;;;15.30;60.80;;;;;;5092736;28;20035;-55
2023/04/06 11:16:20;;;;;;;21.88;11.43;;;15.20;60.90;;;;;;5092815;28;20412;-53
2023/04/06 11:19:04;;;;;;;23.48;12.20;;;15.20;62.80;;;;;;5092677;28;20024;-55
2023/04/06 11:21:43;;;;;;;23.02;11.75;;;15.10;61.90;;;;;;5092968;28;20020;-55
2023/04/06 11:24:16;;;;;;;22.48;11.65;;;14.80;62.90;;;;;;5092722;28;20053;-52
2023/04/06 11:26:47;;;;;;;22.25;12.13;;;14.70;62.70;;;;;;5092564;28;20040;-53
2023/04/06 11:29:13;;;;;;;21.02;11.60;;;14.70;63.20;;;;;;5092814;28;20527;-53
2023/04/06 11:31:48;;;;;;;25.75;13.32;;;14.70;64.20;;;;;;5092820;28;20028;-53
2023/04/06 11:34:24;;;;;;;22.83;12.38;;;14.70;64.10;;;;;;5092489;28;20442;-54
2023/04/06 11:36:59;;;;;;;25.30;11.77;;;14.60;65.30;;;;;;5092433;28;20119;-57
2023/04/06 11:39:27;;;;;;;22.27;11.43;;;14.40;66.30;;;;;;5092564;28;20029;-55
2023/04/06 11:41:55;;;;;;;23.40;11.67;;;14.30;65.40;;;;;;5092855;28;20115;-55
2023/04/06 11:44:42;;;;;;;21.73;11.88;;;14.30;67.60;;;;;;5092239;28;20470;-55
2023/04/06 11:47:10;;;;;;;24.05;12.25;;;14.30;67.40;;;;;;5092264;28;20028;-53
2023/04/06 11:49:41;;;;;;;24.42;12.38;;;14.30;67.90;;;;;;5092240;28;20039;-52
2023/04/06 11:52:18;;;;;;;23.38;12.45;;;14.30;69.70;;;;;;5092387;28;20043;-54
2023/04/06 11:54:44;;;;;;;20.70;12.75;;;14.10;70.10;;;;;;5092260;28;20483;-56
2023/04/06 11:57:10;;;;;;;23.80;12.95;;;13.90;70.00;;;;;;5092311;28;20066;-52
2023/04/06 11:59:36;;;;;;;24.52;13.50;;;13.90;72.70;;;;;;5092104;28;20487;-57
2023/04/06 12:02:03;;;;;;;22.50;12.52;;;13.80;71.30;;;;;;5092108;28;20104;-55
2023/04/06 12:04:29;;;;;;;22.75;12.80;;;13.90;72.30;;;;;;5091799;28;20024;-54
2023/04/06 12:06:55;;;;;;;22.55;12.07;;;14.00;71.50;;;;;;5092034;28;20547;-55
2023/04/06 12:09:21;;;;;;;22.05;11.90;;;13.90;71.50;;;;;;5092081;28;20166;-55
2023/04/06 12:11:47;;;;;;;22.83;10.85;;;13.90;72.20;;;;;;5092199;28;20484;-49
2023/04/06 12:14:13;;;;;;;22.33;11.82;;;13.90;73.70;;;;;;5091687;28;20032;-54
2023/04/06 12:16:38;;;;;;;23.33;11.57;;;14.00;73.20;;;;;;5091901;28;20028;-53
2023/04/06 12:19:05;;;;;;;22.38;12.20;;;14.00;72.50;;;;;;5091941;28;20435;-56
2023/04/06 12:21:31;;;;;;;21.90;11.52;;;14.10;71.60;;;;;;5091997;28;20027;-52
2023/04/06 12:24:01;;;;;;;22.33;11.57;;;14.10;70.90;;;;;;5091883;28;20028;-55
2023/04/06 12:26:27;;;;;;;21.88;12.07;;;14.10;71.00;;;;;;5091819;28;20028;-55
2023/04/06 12:28:53;;;;;;;21.92;11.50;;;14.10;73.00;;;;;;5091739;28;20030;-54
2023/04/06 12:31:20;;;;;;;20.40;11.68;;;14.10;71.40;;;;;;5091812;28;20392;-53
2023/04/06 12:33:50;;;;;;;23.00;12.10;;;14.10;72.80;;;;;;5091669;28;20046;-52
2023/04/06 12:36:18;;;;;;;23.60;12.15;;;14.20;71.40;;;;;;5091836;28;20032;-55
2023/04/06 12:38:48;;;;;;;23.38;11.95;;;14.10;72.00;;;;;;5091544;28;20075;-55
2023/04/06 12:41:14;;;;;;;23.67;12.00;;;13.80;72.80;;;;;;5091832;28;20333;-54
2023/04/06 12:43:43;;;;;;;24.15;11.55;;;13.80;74.00;;;;;;5091209;28;20037;-53
2023/04/06 12:46:09;;;;;;;20.15;11.90;;;13.90;74.00;;;;;;5091596;28;20024;-55